Time;durP1;ratioP1;P1;durP2;ratioP2;P2;SDS_P1;SDS_P2;PMS_P1;PMS_P2;Temp;Humidity;BMP_temperature;BMP_pressure;BME280_temperature;BME280_humidity;BME280_pressure;Samples;Min_cycle;Max_cycle;Signal;HPM_P1;HPM_P2
2022/07/03 00:01:32;;;;;;;2.87;2.67;;;;;;;;;;4987521;23;20243;-86
2022/07/03 00:04:36;;;;;;;6.50;2.90;;;;;;;;;;4943894;29;20550;-86
2022/07/03 00:07:40;;;;;;;2.93;2.60;;;;;;;;;;4937686;29;20219;-86
2022/07/03 00:10:45;;;;;;;2.80;2.13;;;;;;;;;;4941673;28;20230;-86
2022/07/03 00:13:49;;;;;;;4.63;3.10;;;;;;;;;;4938803;28;20203;-86
2022/07/03 00:16:53;;;;;;;4.33;2.50;;;;;;;;;;4926961;29;20184;-87
2022/07/03 00:19:57;;;;;;;3.17;2.70;;;;;;;;;;4928145;29;20183;-86
2022/07/03 00:23:06;;;;;;;3.33;2.50;;;;;;;;;;4938460;29;20183;-87
2022/07/03 00:26:12;;;;;;;3.20;2.90;;;;;;;;;;4939126;28;20566;-86
2022/07/03 00:29:18;;;;;;;4.10;3.07;;;;;;;;;;4942517;28;20203;-86
2022/07/03 00:32:23;;;;;;;3.53;2.40;;;;;;;;;;4939011;28;20226;-86
2022/07/03 00:35:30;;;;;;;3.53;2.60;;;;;;;;;;4956419;28;20179;-86
2022/07/03 00:38:34;;;;;;;3.93;2.90;;;;;;;;;;4956573;28;20179;-87
2022/07/03 00:41:38;;;;;;;2.50;2.30;;;;;;;;;;4944489;28;20222;-86
2022/07/03 00:44:48;;;;;;;4.17;2.83;;;;;;;;;;4945155;28;20523;-86
2022/07/03 00:47:54;;;;;;;4.13;2.83;;;;;;;;;;4944180;29;20702;-87
2022/07/03 00:50:59;;;;;;;4.37;3.00;;;;;;;;;;4925873;29;20223;-86
2022/07/03 00:54:03;;;;;;;6.90;2.70;;;;;;;;;;4937286;28;20207;-86
2022/07/03 00:57:14;;;;;;;3.67;2.80;;;;;;;;;;4944125;28;20179;-86
2022/07/03 01:00:19;;;;;;;4.20;2.60;;;;;;;;;;4945182;29;20568;-87
2022/07/03 01:03:27;;;;;;;5.80;2.90;;;;;;;;;;4947310;29;20188;-86
2022/07/03 01:06:38;;;;;;;7.33;2.87;;;;;;;;;;4905818;29;20223;-86
2022/07/03 01:10:29;;;;;;;3.73;2.90;;;;;;;;;;4934503;28;20543;-86
2022/07/03 01:13:54;;;;;;;3.20;2.90;;;;;;;;;;4941207;28;20184;-87
2022/07/03 01:17:04;;;;;;;3.10;2.70;;;;;;;;;;4925243;29;20521;-87
2022/07/03 01:20:08;;;;;;;4.57;3.10;;;;;;;;;;4932117;28;20190;-86
2022/07/03 01:23:45;;;;;;;6.10;3.00;;;;;;;;;;4965919;28;20191;-87
2022/07/03 01:26:57;;;;;;;5.27;3.17;;;;;;;;;;4945517;28;20234;-86
2022/07/03 01:30:10;;;;;;;4.57;3.20;;;;;;;;;;4945126;29;20203;-86
2022/07/03 01:33:19;;;;;;;4.87;2.80;;;;;;;;;;4946333;29;20191;-86
2022/07/03 01:36:26;;;;;;;3.20;2.90;;;;;;;;;;4935292;29;20192;-86
2022/07/03 01:39:30;;;;;;;3.80;3.17;;;;;;;;;;4924429;28;20552;-86
2022/07/03 01:42:40;;;;;;;4.23;3.37;;;;;;;;;;4934843;29;20647;-87
2022/07/03 01:45:47;;;;;;;4.37;3.40;;;;;;;;;;4924553;29;20183;-86
2022/07/03 01:48:54;;;;;;;4.70;3.03;;;;;;;;;;4924664;29;20191;-87
2022/07/03 01:52:00;;;;;;;4.63;3.23;;;;;;;;;;4905470;29;20575;-86
2022/07/03 01:55:05;;;;;;;3.93;2.93;;;;;;;;;;4916420;29;20188;-86
2022/07/03 01:58:10;;;;;;;4.80;3.43;;;;;;;;;;4943767;28;20190;-86
2022/07/03 02:01:33;;;;;;;3.53;3.17;;;;;;;;;;4945218;29;20227;-86
2022/07/03 02:04:48;;;;;;;4.77;3.33;;;;;;;;;;4924734;29;20187;-86
2022/07/03 02:08:22;;;;;;;5.87;3.20;;;;;;;;;;4915889;29;20220;-87
2022/07/03 02:11:27;;;;;;;3.23;2.60;;;;;;;;;;4916389;29;20231;-86
2022/07/03 02:14:35;;;;;;;3.70;3.30;;;;;;;;;;4937637;29;20184;-86
2022/07/03 02:17:45;;;;;;;5.73;3.40;;;;;;;;;;4947774;28;20191;-86
2022/07/03 02:21:09;;;;;;;4.03;3.23;;;;;;;;;;4955529;28;20243;-86
2022/07/03 02:24:19;;;;;;;3.50;3.20;;;;;;;;;;4941266;29;20184;-87
2022/07/03 02:27:28;;;;;;;4.30;3.30;;;;;;;;;;4934482;28;20216;-87
2022/07/03 02:30:35;;;;;;;4.00;3.60;;;;;;;;;;4966344;28;20222;-87
2022/07/03 02:33:41;;;;;;;5.40;3.50;;;;;;;;;;4905718;29;20671;-87
2022/07/03 02:36:48;;;;;;;4.43;3.23;;;;;;;;;;4927519;29;20185;-87
2022/07/03 02:40:14;;;;;;;3.63;3.33;;;;;;;;;;4928417;29;20208;-87
2022/07/03 02:43:30;;;;;;;3.27;2.87;;;;;;;;;;4962616;28;20198;-87
2022/07/03 02:46:51;;;;;;;3.83;3.40;;;;;;;;;;4969920;28;20195;-87
2022/07/03 02:50:04;;;;;;;3.93;2.87;;;;;;;;;;4947225;28;20221;-87
2022/07/03 02:53:30;;;;;;;4.07;3.40;;;;;;;;;;4940984;29;20199;-86
2022/07/03 02:56:45;;;;;;;6.07;3.73;;;;;;;;;;4920962;29;20188;-86
2022/07/03 03:00:00;;;;;;;3.63;3.20;;;;;;;;;;4943895;29;20627;-86
2022/07/03 03:03:05;;;;;;;4.60;3.53;;;;;;;;;;4949866;28;20570;-87
2022/07/03 03:06:14;;;;;;;3.77;3.20;;;;;;;;;;4931907;29;20196;-87
2022/07/03 03:09:25;;;;;;;4.67;3.37;;;;;;;;;;4909850;29;20188;-87
2022/07/03 03:12:38;;;;;;;5.03;3.60;;;;;;;;;;4920233;29;20224;-87
2022/07/03 03:15:58;;;;;;;4.87;3.47;;;;;;;;;;4943778;28;20202;-86
2022/07/03 03:19:02;;;;;;;4.07;3.50;;;;;;;;;;4947074;28;20187;-86
2022/07/03 03:22:27;;;;;;;4.97;3.67;;;;;;;;;;4947340;28;20700;-86
2022/07/03 03:25:32;;;;;;;3.80;3.40;;;;;;;;;;4947228;29;20195;-87
2022/07/03 03:28:36;;;;;;;4.03;3.50;;;;;;;;;;4926741;29;20562;-86
2022/07/03 03:31:41;;;;;;;4.03;3.20;;;;;;;;;;4926820;28;20227;-87
2022/07/03 03:34:46;;;;;;;5.43;3.23;;;;;;;;;;4931425;28;20542;-86
2022/07/03 03:37:50;;;;;;;4.83;3.87;;;;;;;;;;4925957;28;20196;-86
2022/07/03 03:40:55;;;;;;;3.63;3.27;;;;;;;;;;4967346;28;20218;-87
2022/07/03 03:43:59;;;;;;;4.80;3.77;;;;;;;;;;4945234;28;20183;-86
2022/07/03 03:47:04;;;;;;;6.57;3.90;;;;;;;;;;4941650;28;20533;-86
2022/07/03 03:50:08;;;;;;;4.07;3.37;;;;;;;;;;4967209;28;20183;-86
2022/07/03 03:53:12;;;;;;;4.10;3.30;;;;;;;;;;4944741;29;20207;-86
2022/07/03 03:56:16;;;;;;;3.70;3.40;;;;;;;;;;4947938;29;20192;-86
2022/07/03 03:59:21;;;;;;;3.67;3.17;;;;;;;;;;4928963;29;20188;-86
2022/07/03 04:02:25;;;;;;;5.07;3.40;;;;;;;;;;4917985;29;20701;-87
2022/07/03 04:05:29;;;;;;;4.90;3.80;;;;;;;;;;4939140;29;20195;-86
2022/07/03 04:08:34;;;;;;;4.70;3.70;;;;;;;;;;4936303;29;20689;-86
2022/07/03 04:11:37;;;;;;;3.90;3.50;;;;;;;;;;4930677;28;20222;-86
2022/07/03 04:14:42;;;;;;;4.17;3.73;;;;;;;;;;4942295;29;20199;-87
2022/07/03 04:17:51;;;;;;;3.93;3.53;;;;;;;;;;4926044;29;20207;-86
2022/07/03 04:20:54;;;;;;;4.87;4.03;;;;;;;;;;4955564;28;20222;-86
2022/07/03 04:23:58;;;;;;;5.07;3.40;;;;;;;;;;4944591;28;20203;-86
2022/07/03 04:27:03;;;;;;;4.30;3.90;;;;;;;;;;4956164;28;20183;-86
2022/07/03 04:30:11;;;;;;;4.17;3.57;;;;;;;;;;4944959;28;20191;-86
2022/07/03 04:33:15;;;;;;;4.03;3.57;;;;;;;;;;4937044;29;20207;-86
2022/07/03 04:36:19;;;;;;;3.90;3.50;;;;;;;;;;4938448;29;20204;-87
2022/07/03 04:39:24;;;;;;;6.20;3.57;;;;;;;;;;4917265;29;20181;-86
2022/07/03 04:42:28;;;;;;;5.40;3.70;;;;;;;;;;4927864;29;20228;-87
2022/07/03 04:45:32;;;;;;;4.20;3.80;;;;;;;;;;4954359;28;20199;-86
2022/07/03 04:48:36;;;;;;;4.83;4.10;;;;;;;;;;4924928;29;20215;-86
2022/07/03 04:51:40;;;;;;;5.47;3.40;;;;;;;;;;4946700;28;20219;-86
2022/07/03 04:54:44;;;;;;;7.67;3.70;;;;;;;;;;4924608;29;20211;-87
2022/07/03 04:57:49;;;;;;;5.30;3.60;;;;;;;;;;4924998;29;20184;-86
2022/07/03 05:00:53;;;;;;;3.87;3.43;;;;;;;;;;4935246;29;20583;-86
2022/07/03 05:03:57;;;;;;;4.23;3.43;;;;;;;;;;4917950;28;20188;-87
2022/07/03 05:07:01;;;;;;;4.10;3.70;;;;;;;;;;4955213;28;20190;-86
2022/07/03 05:10:06;;;;;;;5.20;3.90;;;;;;;;;;4916278;29;20180;-87
2022/07/03 05:13:10;;;;;;;5.00;3.80;;;;;;;;;;4916376;29;20540;-87
2022/07/03 05:16:14;;;;;;;4.20;3.80;;;;;;;;;;4916785;29;20192;-87
2022/07/03 05:19:18;;;;;;;4.57;3.80;;;;;;;;;;4927330;29;20180;-86
2022/07/03 05:22:22;;;;;;;4.83;3.87;;;;;;;;;;4905592;29;20231;-87
2022/07/03 05:25:29;;;;;;;5.37;4.00;;;;;;;;;;4919810;29;20195;-92
2022/07/03 05:28:33;;;;;;;4.70;3.40;;;;;;;;;;4934695;29;20215;-89
2022/07/03 05:31:38;;;;;;;4.23;3.03;;;;;;;;;;4922925;29;20223;-89
2022/07/03 05:34:46;;;;;;;5.07;4.10;;;;;;;;;;4933649;29;20184;-90
2022/07/03 05:37:50;;;;;;;5.73;3.70;;;;;;;;;;4933955;29;20519;-89
2022/07/03 05:40:57;;;;;;;4.23;3.50;;;;;;;;;;4933649;29;20222;-89
2022/07/03 05:44:01;;;;;;;6.57;3.30;;;;;;;;;;4933461;29;20188;-89
2022/07/03 05:47:09;;;;;;;4.73;3.20;;;;;;;;;;4934265;29;20643;-91
2022/07/03 05:50:13;;;;;;;6.83;3.20;;;;;;;;;;4933929;29;20525;-89
2022/07/03 05:53:17;;;;;;;5.20;2.93;;;;;;;;;;4906131;28;20196;-89
2022/07/03 05:56:21;;;;;;;4.37;3.13;;;;;;;;;;4964052;28;20633;-89
2022/07/03 05:59:26;;;;;;;4.27;2.87;;;;;;;;;;4952977;28;20179;-89
2022/07/03 06:02:31;;;;;;;4.10;3.70;;;;;;;;;;4977088;23;20241;-81
2022/07/03 06:05:36;;;;;;;4.33;2.90;;;;;;;;;;4975518;28;20190;-80
2022/07/03 06:08:40;;;;;;;3.97;2.83;;;;;;;;;;4986444;28;20214;-81
2022/07/03 06:11:45;;;;;;;4.03;3.10;;;;;;;;;;4952177;29;20226;-80
2022/07/03 06:14:49;;;;;;;3.90;2.50;;;;;;;;;;4962743;28;20539;-81
2022/07/03 06:17:53;;;;;;;4.37;2.30;;;;;;;;;;4952220;29;20199;-80
2022/07/03 06:20:57;;;;;;;6.50;2.97;;;;;;;;;;4951741;28;20223;-80
2022/07/03 06:24:01;;;;;;;2.43;2.23;;;;;;;;;;4946756;28;20646;-81
2022/07/03 06:27:05;;;;;;;3.40;2.63;;;;;;;;;;4971683;28;20186;-81
2022/07/03 06:30:10;;;;;;;3.70;2.50;;;;;;;;;;4955335;28;20183;-81
2022/07/03 06:33:14;;;;;;;2.47;2.27;;;;;;;;;;4941320;29;20192;-80
2022/07/03 06:36:18;;;;;;;3.40;2.70;;;;;;;;;;4949007;28;20187;-81
2022/07/03 06:39:22;;;;;;;3.00;2.63;;;;;;;;;;4971723;28;20187;-81
2022/07/03 06:42:26;;;;;;;4.27;2.50;;;;;;;;;;4948520;28;20222;-80
2022/07/03 06:45:30;;;;;;;6.80;2.50;;;;;;;;;;4945631;28;20191;-80
2022/07/03 06:48:35;;;;;;;3.53;2.40;;;;;;;;;;4968630;28;20211;-80
2022/07/03 06:51:39;;;;;;;3.03;2.40;;;;;;;;;;4965132;28;20222;-80
2022/07/03 06:54:43;;;;;;;2.30;2.10;;;;;;;;;;4968513;28;20195;-80
2022/07/03 06:57:47;;;;;;;3.47;2.27;;;;;;;;;;4963340;28;20186;-80
2022/07/03 07:00:51;;;;;;;3.43;2.90;;;;;;;;;;4974393;28;20566;-80
2022/07/03 07:03:55;;;;;;;3.53;2.10;;;;;;;;;;4961175;28;20202;-81
2022/07/03 07:07:00;;;;;;;2.40;2.20;;;;;;;;;;4960002;28;20638;-79
2022/07/03 07:10:04;;;;;;;3.27;2.17;;;;;;;;;;4969661;28;20206;-80
2022/07/03 07:13:08;;;;;;;4.70;2.50;;;;;;;;;;4969128;28;20203;-80
2022/07/03 07:16:13;;;;;;;3.03;2.70;;;;;;;;;;4958743;28;20654;-79
2022/07/03 07:19:17;;;;;;;2.87;2.43;;;;;;;;;;4969324;28;20202;-80
2022/07/03 07:22:21;;;;;;;3.33;2.23;;;;;;;;;;4969830;28;20230;-79
2022/07/03 07:25:25;;;;;;;3.80;2.10;;;;;;;;;;4968592;28;20653;-80
2022/07/03 07:28:31;;;;;;;2.63;2.00;;;;;;;;;;4968338;28;20218;-80
2022/07/03 07:31:35;;;;;;;2.13;1.93;;;;;;;;;;4951981;28;20235;-80
2022/07/03 07:34:39;;;;;;;4.30;2.00;;;;;;;;;;4967749;28;20544;-80
2022/07/03 07:37:44;;;;;;;3.73;1.90;;;;;;;;;;4957677;28;20188;-80
2022/07/03 07:40:48;;;;;;;3.17;1.80;;;;;;;;;;4967891;28;20226;-80
2022/07/03 07:43:52;;;;;;;2.50;1.70;;;;;;;;;;4968637;28;20199;-80
2022/07/03 07:46:57;;;;;;;2.25;1.50;;;;;;;;;;4958037;28;20286;-80
2022/07/03 07:50:00;;;;;;;2.05;1.50;;;;;;;;;;4969087;28;20210;-81
2022/07/03 07:53:05;;;;;;;2.90;1.58;;;;;;;;;;4968491;28;20190;-80
2022/07/03 07:56:10;;;;;;;1.73;1.48;;;;;;;;;;4940669;29;20204;-81
2022/07/03 07:59:14;;;;;;;1.95;1.30;;;;;;;;;;4966633;28;20206;-81
2022/07/03 08:05:41;;;;;;;2.75;1.30;;;;;;;;;;4980023;28;20199;-80
2022/07/03 08:08:45;;;;;;;3.25;1.60;;;;;;;;;;4957773;28;20218;-80
2022/07/03 08:11:49;;;;;;;3.00;1.20;;;;;;;;;;4968788;28;20568;-80
2022/07/03 08:14:53;;;;;;;2.55;1.50;;;;;;;;;;4958231;28;20628;-81
2022/07/03 08:17:58;;;;;;;2.25;1.13;;;;;;;;;;4968538;28;20190;-78
2022/07/03 08:21:02;;;;;;;2.72;1.00;;;;;;;;;;4978473;28;20222;-78
2022/07/03 08:24:06;;;;;;;6.88;1.30;;;;;;;;;;4966321;28;20190;-78
2022/07/03 08:27:10;;;;;;;2.25;1.10;;;;;;;;;;4978053;28;20183;-78
2022/07/03 08:30:17;;;;;;;1.45;1.10;;;;;;;;;;4965705;28;20227;-78
2022/07/03 08:33:21;;;;;;;1.58;1.15;;;;;;;;;;4965550;28;20207;-78
2022/07/03 08:36:25;;;;;;;2.33;1.40;;;;;;;;;;4966013;28;20203;-78
2022/07/03 08:39:29;;;;;;;2.92;1.20;;;;;;;;;;4943745;28;20183;-79
2022/07/03 08:42:36;;;;;;;2.08;1.20;;;;;;;;;;4954556;28;20561;-78
2022/07/03 08:45:41;;;;;;;3.15;1.40;;;;;;;;;;4966138;28;20630;-78
2022/07/03 08:48:47;;;;;;;1.27;0.95;;;;;;;;;;4964981;28;20211;-78
2022/07/03 08:51:53;;;;;;;2.08;1.10;;;;;;;;;;4963669;28;20231;-78
2022/07/03 08:54:57;;;;;;;1.92;1.20;;;;;;;;;;4966727;28;20191;-78
2022/07/03 08:58:02;;;;;;;1.95;1.30;;;;;;;;;;4976209;28;20202;-78
2022/07/03 09:01:06;;;;;;;1.33;1.00;;;;;;;;;;4965967;28;20211;-78
2022/07/03 09:04:15;;;;;;;2.03;1.20;;;;;;;;;;4977780;28;20199;-78
2022/07/03 09:07:20;;;;;;;1.20;1.00;;;;;;;;;;4955528;28;20188;-79
2022/07/03 09:10:24;;;;;;;1.27;1.17;;;;;;;;;;4965318;28;20218;-78
2022/07/03 09:13:29;;;;;;;1.75;1.20;;;;;;;;;;4966146;28;20183;-78
2022/07/03 09:16:37;;;;;;;1.20;1.10;;;;;;;;;;4977440;28;20184;-78
2022/07/03 09:19:43;;;;;;;1.80;1.17;;;;;;;;;;4954957;28;20203;-78
2022/07/03 09:22:47;;;;;;;2.08;1.10;;;;;;;;;;4965438;28;20207;-78
2022/07/03 09:26:00;;;;;;;1.85;1.15;;;;;;;;;;4937051;29;20192;-78
2022/07/03 09:29:04;;;;;;;2.00;1.00;;;;;;;;;;4958253;28;20219;-79
2022/07/03 09:32:08;;;;;;;3.22;1.20;;;;;;;;;;4966928;28;20231;-79
2022/07/03 09:35:26;;;;;;;2.60;1.27;;;;;;;;;;4966568;28;20187;-78
2022/07/03 09:38:31;;;;;;;1.50;0.93;;;;;;;;;;4978283;28;20199;-79
2022/07/03 09:42:11;;;;;;;1.13;1.00;;;;;;;;;;4954780;28;20218;-81
2022/07/03 09:45:15;;;;;;;2.45;0.73;;;;;;;;;;4965511;28;21410;-79
2022/07/03 09:48:30;;;;;;;1.00;0.90;;;;;;;;;;4948096;28;20195;-77
2022/07/03 09:51:34;;;;;;;3.13;1.13;;;;;;;;;;4973754;28;20219;-78
2022/07/03 09:54:38;;;;;;;3.00;0.93;;;;;;;;;;4965582;28;20195;-78
2022/07/03 09:57:59;;;;;;;2.75;1.00;;;;;;;;;;4962947;28;20553;-78
2022/07/03 10:01:17;;;;;;;0.95;0.90;;;;;;;;;;4946956;29;20224;-78
2022/07/03 10:04:23;;;;;;;4.60;1.30;;;;;;;;;;4958029;28;20188;-78
2022/07/03 10:07:27;;;;;;;1.27;1.00;;;;;;;;;;4943272;28;20191;-78
2022/07/03 10:10:34;;;;;;;1.10;1.00;;;;;;;;;;4947518;28;20211;-79
2022/07/03 10:13:39;;;;;;;2.00;1.00;;;;;;;;;;4944766;28;20191;-79
2022/07/03 10:16:45;;;;;;;2.17;1.00;;;;;;;;;;4977578;28;20187;-79
2022/07/03 10:19:50;;;;;;;3.38;1.10;;;;;;;;;;4966423;28;20183;-78
2022/07/03 10:22:55;;;;;;;3.28;1.20;;;;;;;;;;4959951;29;20184;-79
2022/07/03 10:25:59;;;;;;;2.50;1.10;;;;;;;;;;4959206;28;20199;-78
2022/07/03 10:29:05;;;;;;;1.10;1.00;;;;;;;;;;4952699;28;20199;-78
2022/07/03 10:32:11;;;;;;;2.20;1.00;;;;;;;;;;4951941;28;20222;-78
2022/07/03 10:35:19;;;;;;;1.20;0.85;;;;;;;;;;4969086;28;20647;-80
2022/07/03 10:38:37;;;;;;;1.33;0.98;;;;;;;;;;4955556;28;20215;-78
2022/07/03 10:45:09;;;;;;;0.80;0.80;;;;;;;;;;4945102;29;20191;-78
2022/07/03 10:48:14;;;;;;;1.00;0.90;;;;;;;;;;4952817;28;20207;-79
2022/07/03 10:51:18;;;;;;;2.10;0.90;;;;;;;;;;4967171;28;20235;-79
2022/07/03 10:54:22;;;;;;;1.08;0.98;;;;;;;;;;4978019;28;20206;-79
2022/07/03 10:57:26;;;;;;;1.30;0.80;;;;;;;;;;4978171;28;20207;-79
2022/07/03 11:00:30;;;;;;;1.15;0.80;;;;;;;;;;4966666;28;20642;-79
2022/07/03 11:03:57;;;;;;;3.38;0.90;;;;;;;;;;4982432;28;20211;-79
2022/07/03 11:07:08;;;;;;;0.70;0.63;;;;;;;;;;4981820;28;20199;-79
2022/07/03 11:10:29;;;;;;;1.35;0.73;;;;;;;;;;4974925;28;20211;-79
2022/07/03 11:13:33;;;;;;;1.15;0.80;;;;;;;;;;4980927;28;20200;-79
2022/07/03 11:16:37;;;;;;;0.88;0.77;;;;;;;;;;4978774;28;20203;-78
2022/07/03 11:19:42;;;;;;;2.42;0.70;;;;;;;;;;4961338;29;20211;-78
2022/07/03 11:22:55;;;;;;;1.83;0.77;;;;;;;;;;4943614;28;20211;-80
2022/07/03 11:26:02;;;;;;;0.80;0.73;;;;;;;;;;4969740;28;20199;-79
2022/07/03 11:29:06;;;;;;;1.42;0.70;;;;;;;;;;4960062;28;20530;-79
2022/07/03 11:32:46;;;;;;;3.58;1.00;;;;;;;;;;4969446;28;20226;-79
2022/07/03 11:35:54;;;;;;;1.95;0.85;;;;;;;;;;4941631;28;20187;-77
2022/07/03 11:38:58;;;;;;;1.33;0.60;;;;;;;;;;4966252;28;20634;-78
2022/07/03 11:42:02;;;;;;;1.00;0.80;;;;;;;;;;4966621;28;20226;-78
2022/07/03 11:45:07;;;;;;;2.33;0.80;;;;;;;;;;4966672;28;20199;-79
2022/07/03 11:48:23;;;;;;;1.45;0.82;;;;;;;;;;4968422;28;20687;-79
2022/07/03 11:51:27;;;;;;;1.73;0.90;;;;;;;;;;4977784;28;20251;-78
2022/07/03 11:54:48;;;;;;;0.60;0.60;;;;;;;;;;4980048;28;20188;-78
2022/07/03 11:57:52;;;;;;;1.83;0.90;;;;;;;;;;4935384;29;20185;-78
2022/07/03 12:00:56;;;;;;;2.05;0.80;;;;;;;;;;4955092;28;20226;-77
2022/07/03 12:04:06;;;;;;;4.10;0.80;;;;;;;;;;4992955;23;20250;-88
2022/07/03 12:07:11;;;;;;;1.58;0.80;;;;;;;;;;4958720;28;20198;-88
2022/07/03 12:10:15;;;;;;;2.22;0.90;;;;;;;;;;4974342;28;20221;-89
2022/07/03 12:13:20;;;;;;;0.70;0.70;;;;;;;;;;4973876;28;20222;-88
2022/07/03 12:16:32;;;;;;;1.35;0.70;;;;;;;;;;4957698;28;20199;-88
2022/07/03 12:19:37;;;;;;;1.17;0.77;;;;;;;;;;4947993;28;20536;-88
2022/07/03 12:22:45;;;;;;;0.80;0.65;;;;;;;;;;4955338;28;20188;-87
2022/07/03 12:25:52;;;;;;;2.25;0.70;;;;;;;;;;4966070;28;20191;-89
2022/07/03 12:29:01;;;;;;;1.67;0.60;;;;;;;;;;4963806;28;20195;-89
2022/07/03 12:32:10;;;;;;;1.92;0.70;;;;;;;;;;4974671;28;20194;-88
2022/07/03 12:35:24;;;;;;;3.78;0.70;;;;;;;;;;4954082;29;20207;-88
2022/07/03 12:38:29;;;;;;;0.85;0.65;;;;;;;;;;4949052;28;20653;-89
2022/07/03 12:41:34;;;;;;;1.00;0.70;;;;;;;;;;4966688;28;20223;-88
2022/07/03 12:44:38;;;;;;;2.60;0.70;;;;;;;;;;4954487;28;20246;-88
2022/07/03 12:47:43;;;;;;;0.80;0.70;;;;;;;;;;4943261;28;20202;-88
2022/07/03 12:50:51;;;;;;;3.28;0.50;;;;;;;;;;4953966;28;20180;-88
2022/07/03 12:53:56;;;;;;;2.10;0.70;;;;;;;;;;4940645;28;20222;-86
2022/07/03 13:00:49;;;;;;;2.55;0.70;;;;;;;;;;4952866;28;20219;-88
2022/07/03 13:03:53;;;;;;;1.40;0.70;;;;;;;;;;4949834;28;20235;-88
2022/07/03 13:07:07;;;;;;;1.02;0.63;;;;;;;;;;4950654;28;20202;-88
2022/07/03 13:10:15;;;;;;;1.17;0.70;;;;;;;;;;4936458;28;20191;-87
2022/07/03 13:13:19;;;;;;;2.78;0.65;;;;;;;;;;4942187;28;20219;-88
2022/07/03 13:16:25;;;;;;;0.75;0.73;;;;;;;;;;4965262;28;20187;-88
2022/07/03 13:19:32;;;;;;;1.33;0.60;;;;;;;;;;4960832;28;20207;-88
2022/07/03 13:22:38;;;;;;;1.23;0.60;;;;;;;;;;4963037;28;20183;-88
2022/07/03 13:25:43;;;;;;;0.50;0.50;;;;;;;;;;4969754;28;20194;-88
2022/07/03 13:28:47;;;;;;;0.60;0.60;;;;;;;;;;4953662;28;20516;-88
2022/07/03 13:31:52;;;;;;;0.80;0.57;;;;;;;;;;4941445;29;20188;-88
2022/07/03 13:34:57;;;;;;;1.13;0.70;;;;;;;;;;4931061;28;20219;-88
2022/07/03 13:38:03;;;;;;;0.98;0.60;;;;;;;;;;4968628;28;20203;-88
2022/07/03 13:41:08;;;;;;;2.35;0.68;;;;;;;;;;4963096;28;20214;-88
2022/07/03 13:44:12;;;;;;;2.53;0.70;;;;;;;;;;4963406;28;20222;-88
2022/07/03 13:47:16;;;;;;;1.85;0.77;;;;;;;;;;4985042;28;20629;-88
2022/07/03 13:50:20;;;;;;;1.40;0.60;;;;;;;;;;4951744;28;20650;-88
2022/07/03 13:53:24;;;;;;;1.98;0.60;;;;;;;;;;4939555;28;20222;-89
2022/07/03 13:56:29;;;;;;;2.65;0.80;;;;;;;;;;4943042;28;20202;-87
2022/07/03 13:59:33;;;;;;;2.20;0.55;;;;;;;;;;4941275;28;20199;-87
2022/07/03 14:02:39;;;;;;;1.63;0.70;;;;;;;;;;4954684;28;20187;-88
2022/07/03 14:05:43;;;;;;;2.42;0.82;;;;;;;;;;4943612;28;20183;-88
2022/07/03 14:08:47;;;;;;;3.60;0.80;;;;;;;;;;4943459;28;20184;-88
2022/07/03 14:11:51;;;;;;;2.38;0.90;;;;;;;;;;4953264;28;20187;-88
2022/07/03 14:14:56;;;;;;;1.20;0.80;;;;;;;;;;4941824;28;20697;-88
2022/07/03 14:18:01;;;;;;;0.80;0.68;;;;;;;;;;4942399;28;20184;-88
2022/07/03 14:21:06;;;;;;;1.45;0.65;;;;;;;;;;4942722;28;20219;-88
2022/07/03 14:24:10;;;;;;;2.00;0.70;;;;;;;;;;4957272;28;20218;-88
2022/07/03 14:33:59;;;;;;;2.75;0.60;;;;;;;;;;4956243;29;20228;-90
2022/07/03 14:37:03;;;;;;;4.05;0.63;;;;;;;;;;4943024;28;20206;-87
2022/07/03 14:40:08;;;;;;;1.20;0.80;;;;;;;;;;4945077;28;20190;-88
2022/07/03 14:43:12;;;;;;;1.15;0.80;;;;;;;;;;4944952;28;20215;-88
2022/07/03 14:46:16;;;;;;;1.42;0.85;;;;;;;;;;4947054;28;20187;-88
2022/07/03 14:49:21;;;;;;;1.17;0.70;;;;;;;;;;4946230;28;20198;-88
2022/07/03 14:52:26;;;;;;;3.72;0.60;;;;;;;;;;4947204;28;20532;-88
2022/07/03 14:55:36;;;;;;;1.65;0.82;;;;;;;;;;4958519;28;20183;-88
2022/07/03 14:58:43;;;;;;;0.88;0.40;;;;;;;;;;4946304;28;20678;-88
2022/07/03 15:01:51;;;;;;;0.90;0.57;;;;;;;;;;4967229;28;20226;-88
2022/07/03 15:05:06;;;;;;;1.38;0.60;;;;;;;;;;4967223;28;20235;-88
2022/07/03 15:08:28;;;;;;;1.42;0.70;;;;;;;;;;4944755;28;20203;-88
2022/07/03 15:12:27;;;;;;;0.77;0.57;;;;;;;;;;4954940;28;20180;-88
2022/07/03 15:15:33;;;;;;;1.35;0.70;;;;;;;;;;4920300;28;20210;-88
2022/07/03 15:18:38;;;;;;;1.33;0.65;;;;;;;;;;4945571;28;20188;-88
2022/07/03 15:21:43;;;;;;;1.33;0.60;;;;;;;;;;4943990;28;20215;-88
2022/07/03 15:24:49;;;;;;;1.52;0.65;;;;;;;;;;4943810;28;20223;-88
2022/07/03 15:27:55;;;;;;;3.33;1.23;;;;;;;;;;4965807;28;20203;-88
2022/07/03 15:30:59;;;;;;;1.90;0.82;;;;;;;;;;4943991;28;20542;-88
2022/07/03 15:34:04;;;;;;;2.75;0.70;;;;;;;;;;4954512;28;20226;-88
2022/07/03 15:37:19;;;;;;;1.85;0.82;;;;;;;;;;4943681;28;20202;-88
2022/07/03 15:40:23;;;;;;;3.25;0.90;;;;;;;;;;4954914;28;20188;-88
2022/07/03 15:43:51;;;;;;;2.63;0.90;;;;;;;;;;4943852;28;20218;-88
2022/07/03 15:47:05;;;;;;;1.55;0.60;;;;;;;;;;4943575;28;20188;-88
2022/07/03 15:50:28;;;;;;;1.45;0.80;;;;;;;;;;4954522;28;20183;-88
2022/07/03 15:53:37;;;;;;;1.63;0.73;;;;;;;;;;4954849;28;20219;-87
2022/07/03 15:56:43;;;;;;;2.80;0.82;;;;;;;;;;4965417;28;20191;-88
2022/07/03 15:59:52;;;;;;;1.42;0.77;;;;;;;;;;4943398;28;20183;-88
2022/07/03 16:03:22;;;;;;;1.25;0.70;;;;;;;;;;4953925;28;20188;-87
2022/07/03 16:06:27;;;;;;;2.85;0.75;;;;;;;;;;4943476;28;20195;-88
2022/07/03 16:09:31;;;;;;;4.05;0.98;;;;;;;;;;4965202;28;20191;-88
2022/07/03 16:12:41;;;;;;;2.72;1.05;;;;;;;;;;4953937;28;20187;-87
2022/07/03 16:15:45;;;;;;;1.13;0.65;;;;;;;;;;4943408;28;20187;-87
2022/07/03 16:18:50;;;;;;;0.60;0.60;;;;;;;;;;4943307;28;20206;-87
2022/07/03 16:21:55;;;;;;;1.48;0.80;;;;;;;;;;4945398;28;20231;-88
2022/07/03 16:25:01;;;;;;;0.80;0.63;;;;;;;;;;4942803;28;20222;-87
2022/07/03 16:28:10;;;;;;;3.30;0.80;;;;;;;;;;4966055;28;20187;-88
2022/07/03 16:31:17;;;;;;;1.42;0.60;;;;;;;;;;4943029;28;20176;-86
2022/07/03 16:34:25;;;;;;;0.68;0.68;;;;;;;;;;4964798;28;20697;-88
2022/07/03 16:37:37;;;;;;;3.70;0.95;;;;;;;;;;4953995;28;20187;-88
2022/07/03 16:40:43;;;;;;;2.85;0.90;;;;;;;;;;4955090;28;20195;-87
2022/07/03 16:43:56;;;;;;;3.03;0.80;;;;;;;;;;4942840;28;20241;-87
2022/07/03 16:47:02;;;;;;;1.50;0.90;;;;;;;;;;4964872;28;20193;-87
2022/07/03 16:50:25;;;;;;;1.52;0.70;;;;;;;;;;4943203;28;20198;-87
2022/07/03 16:53:30;;;;;;;1.17;0.80;;;;;;;;;;4954926;28;20225;-87
2022/07/03 16:56:34;;;;;;;0.75;0.70;;;;;;;;;;4943036;28;20209;-87
2022/07/03 16:59:39;;;;;;;1.65;0.93;;;;;;;;;;4952674;28;20204;-87
2022/07/03 17:02:44;;;;;;;1.13;0.90;;;;;;;;;;4943896;28;20225;-87
2022/07/03 17:05:52;;;;;;;3.03;0.90;;;;;;;;;;4954952;28;20210;-87
2022/07/03 17:08:58;;;;;;;1.95;0.80;;;;;;;;;;4945093;28;20214;-87
2022/07/03 17:12:04;;;;;;;0.85;0.80;;;;;;;;;;4953492;28;20202;-87
2022/07/03 17:15:09;;;;;;;2.28;0.75;;;;;;;;;;4953934;28;20185;-88
2022/07/03 17:18:13;;;;;;;0.77;0.73;;;;;;;;;;4942860;28;20183;-88
2022/07/03 17:21:28;;;;;;;2.50;0.80;;;;;;;;;;4943273;28;20224;-87
2022/07/03 17:24:32;;;;;;;3.08;0.70;;;;;;;;;;4942315;28;20227;-87
2022/07/03 17:27:36;;;;;;;3.42;0.80;;;;;;;;;;4953574;28;20205;-88
2022/07/03 17:30:56;;;;;;;1.20;0.90;;;;;;;;;;4943884;28;20190;-87
2022/07/03 17:34:01;;;;;;;2.78;0.73;;;;;;;;;;4943749;28;20574;-87
2022/07/03 17:37:06;;;;;;;1.27;0.90;;;;;;;;;;4943324;28;20645;-87
2022/07/03 17:40:14;;;;;;;1.00;0.80;;;;;;;;;;4944386;28;20190;-87
2022/07/03 17:43:20;;;;;;;2.17;1.00;;;;;;;;;;4945926;28;20237;-87
2022/07/03 17:46:25;;;;;;;2.22;0.90;;;;;;;;;;4953895;28;20200;-87
2022/07/03 17:49:31;;;;;;;2.35;0.80;;;;;;;;;;4942204;28;20191;-87
2022/07/03 17:52:36;;;;;;;0.88;0.60;;;;;;;;;;4954259;28;20189;-88
2022/07/03 17:55:41;;;;;;;2.67;0.95;;;;;;;;;;4953882;28;20192;-88
2022/07/03 17:58:47;;;;;;;1.50;1.00;;;;;;;;;;4964492;28;20196;-88
2022/07/03 18:01:52;;;;;;;2.38;0.90;;;;;;;;;;4965046;28;20222;-87
2022/07/03 18:04:56;;;;;;;1.80;1.00;;;;;;;;;;4944532;23;20239;-86
2022/07/03 18:08:10;;;;;;;1.42;0.85;;;;;;;;;;4934644;29;20189;-86
2022/07/03 18:11:33;;;;;;;4.20;0.85;;;;;;;;;;4926912;29;20193;-86
2022/07/03 18:14:45;;;;;;;2.10;0.80;;;;;;;;;;4948756;29;20221;-86
2022/07/03 18:17:55;;;;;;;3.38;0.68;;;;;;;;;;4937670;29;20197;-86
2022/07/03 18:20:59;;;;;;;1.50;0.85;;;;;;;;;;4948511;29;20188;-86
2022/07/03 18:24:06;;;;;;;2.83;0.70;;;;;;;;;;4936952;29;20221;-86
2022/07/03 18:27:18;;;;;;;1.60;0.80;;;;;;;;;;4926213;29;20528;-86
2022/07/03 18:30:24;;;;;;;2.13;0.70;;;;;;;;;;4938765;29;20641;-86
2022/07/03 18:33:30;;;;;;;2.83;0.70;;;;;;;;;;4938732;29;20221;-86
2022/07/03 18:36:34;;;;;;;2.22;0.90;;;;;;;;;;4938260;29;20186;-86
2022/07/03 18:39:39;;;;;;;1.55;0.85;;;;;;;;;;4938054;29;20192;-85
2022/07/03 18:42:48;;;;;;;0.73;0.73;;;;;;;;;;4929050;29;20540;-85
2022/07/03 18:45:52;;;;;;;2.77;1.00;;;;;;;;;;4949039;29;20195;-86
2022/07/03 18:48:57;;;;;;;2.53;0.73;;;;;;;;;;4937566;29;20654;-86
2022/07/03 18:52:12;;;;;;;2.50;0.85;;;;;;;;;;4928519;29;20186;-86
2022/07/03 18:55:21;;;;;;;3.10;1.00;;;;;;;;;;4927229;29;20225;-85
2022/07/03 18:58:29;;;;;;;1.57;0.83;;;;;;;;;;4930935;29;20206;-85
2022/07/03 19:01:34;;;;;;;8.27;0.80;;;;;;;;;;4925058;29;20202;-85